Latest Coastal Weather Observations for Derby

IDW60701

Issued at 3:33 pm WST Thursday 23 November 2017 (issued every 10 minutes, with the page automatically refreshed every 10 minutes)

About coastal observations | Map of coastal stations | Coastal observations for WA | Marine services | Other Formats
Station Details ID: 003032 Name: DERBY AERO Lat: -17.37 Lon: 123.66 Height: 6.2 m
Data from the previous 72 hours. | See also: Recent months at Derby
Date/Time
WST
Temp
°C
Wind Pressure Rain since
9am
mm
Weather Cloud Vis
km
Sea
Height
m
Swell
Dir  Spd
kts
Gust
kts
hPa Trend Height
m
Period
s
Dir
23/03:30pm 31.9 NW 19 23 1001.6 - 3.8 - Partly cloudy 10 - - - -
23/03:26pm 32.1 NW 18 22 1001.6 - 3.8 - Partly cloudy 10 - - - -
23/03:06pm 33.3 N 13 24 1002.7 - 2.0 - Partly cloudy 5 - - - -
23/03:00pm 34.5 NNW 15 21 1002.1 - 0.0 Rain Partly cloudy 10 - - - -
23/02:30pm 38.0 NW 12 16 1002.0 - 0.0 - - 10 - - - -
23/02:00pm 38.3 W 5 7 1002.6 - 0.0 - - 10 - - - -
23/01:30pm 37.3 ESE 5 8 1003.1 - 0.0 - - 10 - - - -
23/01:00pm 37.3 W 6 10 1003.5 - 0.0 - - 10 - - - -
23/12:30pm 36.4 W 4 7 1004.0 - 0.0 - - 10 - - - -
23/12:00pm 35.0 NW 7 10 1004.2 - 0.0 - - 10 - - - -
23/11:30am 34.9 NW 7 12 1004.5 - 0.0 - - 10 - - - -
23/11:00am 33.6 W 6 9 1005.0 - 0.0 - - 10 - - - -
23/10:30am 33.1 WNW 6 10 1005.6 - 0.0 - - 10 - - - -
23/10:00am 32.2 WNW 6 9 1006.1 - 0.0 - - 10 - - - -
23/09:30am 32.4 WSW 4 8 1006.5 - 0.0 - - 10 - - - -
23/09:00am 31.4 SW 6 9 1006.7 - 19.6 Rain - 10 - - - -
23/08:30am 30.5 W 5 8 1007.1 - 19.4 - - 10 - - - -
23/08:00am 29.7 WSW 4 6 1007.3 - 19.4 - - 10 - - - -
23/07:30am 29.2 SSE 3 5 1007.4 - 19.4 - - 10 - - - -
23/07:00am 28.7 S 4 5 1007.5 - 19.4 - - 10 - - - -
23/06:30am 28.6 ESE 2 5 1007.6 - 19.4 - - 10 - - - -
23/06:00am 27.5 CALM 0 1 1007.1 - 19.4 - Mostly clear 10 - - - -
23/05:30am 26.6 E 2 4 1006.8 - 19.4 - - 10 - - - -
23/05:00am 26.2 ESE 3 5 1006.6 - 19.4 - Partly cloudy 10 - - - -
23/04:30am 26.0 NE 3 5 1006.2 - 19.4 - Partly cloudy 10 - - - -
23/04:00am 25.8 CALM 0 0 1005.6 - 19.4 - - 10 - - - -
23/03:30am 26.2 CALM 0 0 1005.0 - 19.4 - - 10 - - - -
23/03:00am 26.3 SW 3 4 1004.7 - 19.4 - - 10 - - - -
23/02:40am 26.4 CALM 0 0 1004.9 - 19.4 - Partly cloudy 10 - - - -
23/02:30am 26.4 SSW 2 3 1004.7 - 19.4 - Partly cloudy 10 - - - -
23/02:04am 26.4 SSW 5 7 1004.9 - 19.4 - Partly cloudy 10 - - - -
23/02:00am 26.3 SSW 6 7 1004.9 - 19.4 - Partly cloudy 10 - - - -
23/01:30am 26.4 S 4 6 1004.5 - 19.4 - - 10 - - - -
23/01:00am 27.2 W 5 6 1004.2 - 19.4 - - 10 - - - -
23/12:30am 26.9 WNW 5 7 1004.2 - 19.4 - - 10 - - - -
23/12:00am 26.7 WNW 3 5 1004.5 - 19.4 - Partly cloudy 10 - - - -
 
Date/Time
WST
Temp
°C
Wind Pressure Rain since
9am
mm
Weather Cloud Vis
km
Sea
Height
m
Swell
Dir  Spd
kts
Gust
kts
hPa Trend Height
m
Period
s
Dir
22/11:30pm 26.5 N 3 4 1004.7 - 19.4 - - 10 - - - -
22/11:00pm 26.4 CALM 0 0 1004.7 - 19.4 - - 10 - - - -
22/10:30pm 26.2 CALM 0 2 1004.7 - 19.4 - - 10 - - - -
22/10:00pm 26.3 NW 1 4 1004.8 - 19.4 - - 10 - - - -
22/09:30pm 26.5 NE 4 5 1004.7 - 19.4 - - 10 - - - -
22/09:00pm 25.9 NNE 7 9 1004.3 - 19.4 - Partly cloudy 10 - - - -
22/08:30pm 26.1 SE 7 9 1005.3 - 19.4 - - 10 - - - -
22/08:00pm 26.9 NE 5 8 1005.3 - 19.4 - - 10 - - - -
22/07:30pm 25.9 NW 11 15 1004.7 - 19.4 - Partly cloudy 10 - - - -
22/07:00pm 26.3 NW 11 13 1004.6 - 19.4 - - 10 - - - -
22/06:57pm 25.8 NW 11 14 1004.7 - 19.4 - - 10 - - - -
22/06:46pm 25.2 NW 15 19 1004.3 - 19.4 - Partly cloudy 0.1 - - - -
22/06:30pm 25.1 WNW 21 31 1004.1 - 19.4 - Partly cloudy 0 - - - -
22/06:22pm 27.6 WNW 22 32 1003.5 - 19.4 - Partly cloudy 0 - - - -
22/06:00pm 26.8 NW 21 27 1002.7 - 19.4 Showers Mostly cloudy 0 - - - -
22/05:52pm 25.7 NW 17 24 1002.9 - 19.2 - Partly cloudy 0 - - - -
22/05:51pm 25.1 NW 15 21 1002.9 - 19.2 - Partly cloudy 0 - - - -
22/05:39pm 23.9 SW 15 25 1004.9 - 17.2 - Partly cloudy 0 - - - -
22/05:34pm 23.6 SSW 23 35 1005.7 - 11.4 - Partly cloudy 0 - - - -
22/05:32pm 24.4 S 23 35 1005.6 - 8.8 - Partly cloudy 0 - - - -
22/05:30pm 24.5 S 21 35 1005.3 - 6.6 - Partly cloudy 0 - - - -
22/05:27pm 25.9 SSE 15 35 1004.8 - 2.6 - Partly cloudy 3 - - - -
22/05:26pm 27.0 SSE 13 30 1005.0 - 1.6 - Partly cloudy 6 - - - -
22/05:25pm 28.7 SE 12 24 1005.1 - 0.4 - Partly cloudy 10 - - - -
22/05:18pm 31.6 N 15 24 1004.4 - 0.0 - Partly cloudy 10 - - - -
22/05:00pm 31.9 NNW 22 30 1002.4 - 0.0 - Partly cloudy 10 - - - -
22/04:30pm 32.2 NNW 18 23 1002.8 - 0.0 - Partly cloudy 10 - - - -
22/04:00pm 31.9 NNW 20 25 1002.3 - 0.0 - - 10 - - - -
22/03:30pm 33.7 NNW 19 25 1002.0 - 0.0 - - 10 - - - -
22/03:00pm 34.5 NNW 16 21 1001.6 - 0.0 Rain Mostly clear 10 - - - -
22/02:30pm 36.1 N 10 12 1001.5 - 0.0 - - 10 - - - -
22/02:00pm 36.8 N 14 21 1001.9 - 0.0 - Partly cloudy 10 - - - -
22/01:30pm 37.7 NNE 8 16 1002.2 - 0.0 - Partly cloudy 10 - - - -
22/01:00pm 38.1 NE 5 11 1002.8 - 0.0 - - 10 - - - -
22/12:30pm 39.0 WSW 5 11 1003.4 - 0.0 - Partly cloudy 10 - - - -
22/12:00pm 38.0 NNW 5 10 1003.9 - 0.0 - - 10 - - - -
22/11:30am 37.6 WNW 5 8 1004.5 - 0.0 - - 10 - - - -
22/11:00am 36.6 WSW 6 9 1005.2 - 0.0 - - 10 - - - -
22/10:30am 35.6 WSW 6 10 1005.5 - 0.0 - - 10 - - - -
22/10:00am 34.6 WSW 8 12 1006.0 - 0.0 - - 10 - - - -
22/09:30am 34.1 W 7 12 1006.7 - 0.0 - - 10 - - - -
22/09:00am 33.1 WSW 5 8 1007.0 - 0.0 - - 10 - - - -
22/08:30am 32.6 S 6 10 1007.4 - 0.0 - - 10 - - - -
22/08:00am 31.8 S 9 13 1007.5 - 0.0 - - 10 - - - -
22/07:30am 31.3 S 7 10 1007.4 - 0.0 - - 10 - - - -
22/07:00am 30.6 SSW 6 9 1007.1 - 0.0 - - 10 - - - -
22/06:30am 29.8 SSW 5 6 1006.9 - 0.0 - - 10 - - - -
22/06:00am 29.2 SW 7 9 1006.9 - 0.0 - - 10 - - - -
22/05:30am 29.0 WSW 6 8 1006.3 - 0.0 - - 10 - - - -
22/05:00am 28.5 WNW 7 10 1005.8 - 0.0 - - 10 - - - -
22/04:30am 28.8 NW 9 11 1005.2 - 0.0 - - 10 - - - -
22/04:00am 29.0 NW 9 12 1004.6 - 0.0 - - 10 - - - -
22/03:30am 29.2 NW 12 15 1004.2 - 0.0 - - 10 - - - -
22/03:00am 29.3 NW 10 12 1004.2 - 0.0 - - 10 - - - -
22/02:30am 29.6 NW 9 12 1004.2 - 0.0 - - 10 - - - -
22/02:00am 29.8 NNW 10 12 1004.2 - 0.0 - - 10 - - - -
22/01:30am 30.1 NW 9 12 1004.6 - 0.0 - - 10 - - - -
22/01:00am 29.8 NW 7 9 1004.6 - 0.0 - - 10 - - - -
22/12:30am 29.4 NW 5 6 1004.6 - 0.0 - - 10 - - - -
22/12:00am 29.6 NW 8 10 1004.8 - 0.0 - - 10 - - - -
 
Date/Time
WST
Temp
°C
Wind Pressure Rain since
9am
mm
Weather Cloud Vis
km
Sea
Height
m
Swell
Dir  Spd
kts
Gust
kts
hPa Trend Height
m
Period
s
Dir
21/11:30pm 30.0 WNW 7 10 1005.1 - 0.0 - - 10 - - - -
21/11:00pm 30.2 WNW 6 9 1005.5 - 0.0 - - 10 - - - -
21/10:30pm 30.7 NW 9 11 1006.0 - 0.0 - - 10 - - - -
21/10:00pm 31.1 NW 10 13 1006.3 - 0.0 - - 10 - - - -
21/09:30pm 31.2 NW 10 12 1006.5 - 0.0 - - 10 - - - -
21/09:00pm 31.4 NW 11 13 1006.2 - 0.0 - - 10 - - - -
21/08:30pm 31.6 NW 11 14 1005.9 - 0.0 - - 10 - - - -
21/08:00pm 31.9 NW 11 14 1005.7 - 0.0 - - 10 - - - -
21/07:30pm 32.1 NW 11 15 1005.1 - 0.0 - - 10 - - - -
21/07:00pm 32.4 NW 13 16 1005.0 - 0.0 - - 10 - - - -
21/06:30pm 32.4 NW 13 16 1004.5 - 0.0 - - 10 - - - -
21/06:00pm 32.2 NW 15 19 1004.2 - 0.0 - - 10 - - - -
21/05:30pm 32.5 NW 17 21 1003.8 - 0.0 - - 10 - - - -
21/05:00pm 35.9 NNW 11 14 1003.4 - 0.0 - - 10 - - - -
21/04:30pm 36.1 NNW 10 13 1003.4 - 0.0 - - 10 - - - -
21/04:00pm 36.3 NNW 10 15 1003.5 - 0.0 - - 10 - - - -
21/03:30pm 36.8 NW 9 12 1003.6 - 0.0 - - 10 - - - -
21/03:00pm 37.0 NW 10 15 1003.7 - 0.0 - - 10 - - - -
21/02:30pm 36.4 NW 12 17 1004.2 - 0.0 - - 10 - - - -
21/02:00pm 35.8 WNW 14 17 1004.7 - 0.0 - - 10 - - - -
21/01:30pm 35.7 WNW 12 16 1005.2 - 0.0 - - 10 - - - -
21/01:00pm 35.8 WNW 10 15 1005.8 - 0.0 - - 10 - - - -
21/12:30pm 35.1 WNW 11 17 1006.3 - 0.0 - - 10 - - - -
21/12:00pm 34.7 NW 12 16 1006.7 - 0.0 - - 10 - - - -
21/11:30am 34.5 WNW 11 17 1007.0 - 0.0 - - 10 - - - -
21/11:00am 35.3 NNW 11 17 1007.3 - 0.0 - Partly cloudy 10 - - - -
21/10:30am 34.9 NNW 7 12 1007.9 - 0.0 - Partly cloudy 10 - - - -
21/10:00am 34.9 N 9 16 1008.2 - 0.0 - Partly cloudy 10 - - - -
21/09:30am 33.7 N 7 11 1008.8 - 0.0 - Partly cloudy 10 - - - -
21/09:00am 33.1 N 7 14 1009.3 - 0.0 - Partly cloudy 10 - - - -
21/08:30am 32.0 NNE 4 7 1009.5 - 0.0 - - 10 - - - -
21/08:00am 30.8 NE 4 7 1009.4 - 0.0 - Partly cloudy 10 - - - -
21/07:30am 30.7 NE 5 8 1009.3 - 0.0 - - 10 - - - -
21/07:00am 29.8 SE 6 8 1009.3 - 0.0 - Partly cloudy 10 - - - -
21/06:30am 29.3 E 4 6 1009.0 - 0.0 - Partly cloudy 10 - - - -
21/06:00am 29.0 ESE 5 5 1008.6 - 0.0 - Mostly cloudy 10 - - - -
21/05:30am 28.8 NW 1 3 1007.7 - 0.0 - Partly cloudy 10 - - - -
21/05:00am 28.2 WNW 5 5 1006.8 - 0.0 - - 10 - - - -
21/04:30am 28.7 NW 6 8 1006.5 - 0.0 - - 10 - - - -
21/04:00am 28.8 NNW 7 8 1006.4 - 0.0 - - 10 - - - -
21/03:30am 28.7 NW 6 7 1006.3 - 0.0 - - 10 - - - -
21/03:00am 28.8 NW 4 6 1006.2 - 0.0 - Cloudy 10 - - - -
21/02:30am 28.9 WNW 6 8 1006.0 - 0.0 - Partly cloudy 10 - - - -
21/02:00am 29.2 NW 7 9 1005.9 - 0.0 - Partly cloudy 10 - - - -
21/01:30am 29.2 NW 7 9 1006.1 - 0.0 - Partly cloudy 10 - - - -
21/01:00am 29.0 NW 8 10 1006.1 - 0.0 - Partly cloudy 10 - - - -
21/12:30am 29.3 NW 10 12 1006.4 - 0.0 - - 10 - - - -
21/12:00am 29.5 NW 10 12 1007.0 - 0.0 - - 10 - - - -
 
Date/Time
WST
Temp
°C
Wind Pressure Rain since
9am
mm
Weather Cloud Vis
km
Sea
Height
m
Swell
Dir  Spd
kts
Gust
kts
hPa Trend Height
m
Period
s
Dir
20/11:30pm 29.9 WNW 10 13 1007.3 - 0.0 - - 10 - - - -
20/11:00pm 30.3 NW 12 16 1007.9 - 0.0 - - 10 - - - -
20/10:30pm 30.4 NW 12 16 1007.9 - 0.0 - - 10 - - - -
20/10:00pm 30.6 NW 11 14 1008.4 - 0.0 - - 10 - - - -
20/09:30pm 30.8 NW 10 12 1008.4 - 0.0 - - 10 - - - -
20/09:00pm 30.9 NW 10 12 1008.2 - 0.0 - Mostly cloudy 10 - - - -
20/08:30pm 31.1 NW 9 11 1008.0 - 0.0 - - 10 - - - -
20/08:00pm 31.2 NW 11 13 1007.6 - 0.0 - - 10 - - - -
20/07:30pm 31.4 NNW 9 12 1007.3 - 0.0 - - 10 - - - -
20/07:00pm 31.9 NW 12 14 1007.0 - 0.0 - - 10 - - - -
20/06:30pm 32.2 NW 10 13 1006.6 - 0.0 - - 10 - - - -
20/06:00pm 31.8 NW 10 12 1005.9 - 0.0 - - 10 - - - -
20/05:30pm 31.9 NW 12 15 1005.8 - 0.0 - - 10 - - - -
20/05:00pm 32.4 NW 14 19 1005.3 - 0.0 - - 10 - - - -
20/04:30pm 34.2 NNW 13 16 1005.0 - 0.0 - - 10 - - - -
20/04:00pm 34.2 NNW 14 16 1004.9 - 0.0 - - 10 - - - -

Other Formats:

Comma delimited format used in spreadsheet applications
http://www.bom.gov.au/fwo/IDW60701/IDW60701.95205.axf

JavaScript Object Notation format (JSON) in row-major order
http://www.bom.gov.au/fwo/IDW60701/IDW60701.95205.json